Airport View

Enter AWOS ICAO identifier for current METAR.

ex. KFNL

KF17 251115Z AUTO 00000KT 3SM BR OVC003 12/11 A3002 RMK AO2

25 Oct 2020 11:41

Frequency: 128.775

Phone: 936-598-3355

Other Area AWOS: K3F3 - KOCH - KAQV - KRFI

TAF KSHV 250541Z 2506/2606 09007KT P6SM OVC012 TEMPO 2512/2515 6SM BR OVC007 FM251500 13005KT P6SM OVC015 FM252100 12006KT P6SM BKN025 FM260100 12006KT P6SM OVC012